Time;durP1;ratioP1;P1;durP2;ratioP2;P2;SDS_P1;SDS_P2;PMS_P1;PMS_P2;Temp;Humidity;BMP_temperature;BMP_pressure;BME280_temperature;BME280_humidity;BME280_pressure;Samples;Min_cycle;Max_cycle;Signal;HPM_P1;HPM_P2
2022/06/01 00:01:51;;;;;;;3.03;2.72;;;14.60;91.90;;;;;;5042967;28;20806;-50
2022/06/01 00:04:20;;;;;;;4.67;3.10;;;14.60;92.00;;;;;;5029822;28;20239;-50
2022/06/01 00:06:50;;;;;;;3.85;3.00;;;14.60;91.90;;;;;;5029875;28;20232;-50
2022/06/01 00:09:18;;;;;;;4.97;3.30;;;14.50;92.00;;;;;;5033234;28;20229;-50
2022/06/01 00:11:45;;;;;;;7.82;3.38;;;14.50;91.90;;;;;;5052964;28;20216;-50
2022/06/01 00:14:14;;;;;;;3.85;3.13;;;14.50;91.90;;;;;;5053431;28;20218;-51
2022/06/01 00:16:42;;;;;;;4.22;3.15;;;14.50;91.90;;;;;;5049953;28;20277;-50
2022/06/01 00:19:11;;;;;;;6.60;3.50;;;14.40;91.80;;;;;;5043424;28;20228;-50
2022/06/01 00:22:11;;;;;;;3.70;3.10;;;14.40;92.00;;;;;;5044404;28;20236;-50
2022/06/01 00:24:28;;;;;;;3.67;3.28;;;14.40;92.00;;;;;;5040132;28;20208;-50
2022/06/01 00:26:57;;;;;;;3.97;3.13;;;14.40;91.90;;;;;;5048141;28;20224;-50
2022/06/01 00:29:25;;;;;;;3.78;3.33;;;14.30;91.90;;;;;;5040925;28;20267;-50
2022/06/01 00:31:52;;;;;;;4.35;3.25;;;14.30;91.90;;;;;;5058005;28;20260;-50
2022/06/01 00:34:24;;;;;;;3.33;3.03;;;14.20;91.90;;;;;;5052934;28;20201;-50
2022/06/01 00:36:51;;;;;;;4.07;3.53;;;14.20;91.90;;;;;;5030476;28;20251;-51
2022/06/01 00:39:18;;;;;;;4.00;3.50;;;14.20;91.90;;;;;;5041346;28;20703;-50
2022/06/01 00:41:46;;;;;;;3.33;3.03;;;14.20;92.00;;;;;;5051458;28;20204;-50
2022/06/01 00:44:13;;;;;;;4.38;3.33;;;14.20;91.90;;;;;;5028433;28;20212;-49
2022/06/01 00:46:41;;;;;;;5.18;3.70;;;14.10;92.00;;;;;;5029042;28;20228;-51
2022/06/01 00:49:28;;;;;;;5.95;3.78;;;14.10;92.00;;;;;;5028201;28;20232;-50
2022/06/01 00:51:56;;;;;;;4.28;3.60;;;14.00;92.20;;;;;;5054971;28;20222;-50
2022/06/01 00:54:26;;;;;;;4.93;3.58;;;14.00;92.00;;;;;;5043743;28;20205;-50
2022/06/01 00:57:03;;;;;;;3.40;3.10;;;14.00;92.00;;;;;;5034440;28;20250;-50
2022/06/01 00:59:36;;;;;;;4.55;3.55;;;13.90;92.10;;;;;;5042064;28;20207;-50
2022/06/01 01:02:04;;;;;;;5.45;3.60;;;13.90;92.00;;;;;;5036128;28;20576;-50
2022/06/01 01:04:33;;;;;;;4.75;3.50;;;13.90;92.00;;;;;;5033005;28;20235;-50
2022/06/01 01:07:06;;;;;;;4.35;3.20;;;13.90;92.00;;;;;;5051418;28;20208;-50
2022/06/01 01:09:35;;;;;;;3.75;3.28;;;13.80;92.10;;;;;;5054990;28;20702;-50
2022/06/01 01:12:06;;;;;;;3.80;3.30;;;13.80;92.00;;;;;;5058969;28;20733;-51
2022/06/01 01:14:38;;;;;;;3.70;3.28;;;13.70;92.00;;;;;;5033097;28;20324;-50
2022/06/01 01:17:06;;;;;;;4.30;3.50;;;13.70;91.90;;;;;;5049552;28;20243;-50
2022/06/01 01:19:42;;;;;;;5.30;3.90;;;13.70;92.00;;;;;;5049338;28;20211;-50
2022/06/01 01:22:28;;;;;;;3.70;3.35;;;13.70;92.10;;;;;;5047243;28;20255;-50
2022/06/01 01:25:10;;;;;;;3.00;2.70;;;13.60;92.00;;;;;;5044749;28;20200;-50
2022/06/01 01:27:40;;;;;;;3.40;2.97;;;13.60;92.10;;;;;;5056074;28;20641;-50
2022/06/01 01:30:35;;;;;;;4.03;3.00;;;13.60;92.00;;;;;;5045257;28;20284;-49
2022/06/01 01:33:08;;;;;;;5.07;3.20;;;13.50;92.10;;;;;;5035396;28;20335;-50
2022/06/01 01:35:36;;;;;;;3.25;2.95;;;13.50;92.00;;;;;;5029865;28;20205;-50
2022/06/01 01:38:09;;;;;;;5.18;3.03;;;13.40;92.00;;;;;;5039022;28;20261;-50
2022/06/01 01:40:37;;;;;;;4.60;3.05;;;13.40;92.10;;;;;;5042474;28;20195;-50
2022/06/01 01:43:07;;;;;;;5.82;3.25;;;13.40;92.10;;;;;;5062069;28;20627;-50
2022/06/01 01:45:37;;;;;;;3.78;2.90;;;13.40;92.00;;;;;;5040297;28;20216;-50
2022/06/01 01:48:07;;;;;;;4.15;3.00;;;13.40;92.00;;;;;;5040586;28;20228;-49
2022/06/01 01:50:34;;;;;;;4.97;2.90;;;13.30;92.00;;;;;;5038793;28;20308;-49
2022/06/01 01:53:04;;;;;;;3.47;3.17;;;13.30;92.00;;;;;;5067904;28;20188;-50
2022/06/01 01:55:31;;;;;;;3.43;2.57;;;13.20;92.00;;;;;;5038759;28;20263;-50
2022/06/01 01:58:01;;;;;;;5.10;2.97;;;13.20;91.90;;;;;;5034903;28;20210;-50
2022/06/01 02:00:40;;;;;;;4.50;2.67;;;13.20;91.90;;;;;;5057788;28;20203;-50
2022/06/01 02:03:07;;;;;;;4.70;2.77;;;13.20;92.00;;;;;;5028256;28;20740;-50
2022/06/01 02:06:05;;;;;;;3.28;2.25;;;13.20;91.90;;;;;;5041441;28;20604;-50
2022/06/01 02:08:46;;;;;;;2.97;2.67;;;13.20;91.90;;;;;;5035721;28;20213;-50
2022/06/01 02:14:26;;;;;;;3.88;2.65;;;13.00;91.80;;;;;;5049775;28;20554;-49
2022/06/01 02:17:07;;;;;;;3.45;2.30;;;13.00;91.80;;;;;;5040025;28;20232;-50
2022/06/01 02:19:45;;;;;;;3.33;2.63;;;13.00;91.90;;;;;;5044726;28;20219;-50
2022/06/01 02:22:16;;;;;;;4.13;2.60;;;12.90;91.80;;;;;;5031275;28;20212;-50
2022/06/01 02:24:46;;;;;;;3.72;2.65;;;12.90;91.70;;;;;;5031155;28;20308;-49
2022/06/01 02:27:15;;;;;;;2.22;2.03;;;12.90;91.80;;;;;;5046567;28;20686;-49
2022/06/01 02:30:07;;;;;;;5.50;2.33;;;12.90;91.70;;;;;;5050911;28;20240;-51
2022/06/01 02:32:36;;;;;;;3.22;2.22;;;12.80;91.90;;;;;;5034765;28;20208;-50
2022/06/01 02:35:05;;;;;;;3.13;2.05;;;12.80;91.70;;;;;;5050060;28;20200;-50
2022/06/01 02:37:35;;;;;;;3.37;2.13;;;12.80;91.60;;;;;;5040947;28;20726;-50
2022/06/01 02:40:09;;;;;;;3.57;2.30;;;12.80;91.60;;;;;;5030362;28;20750;-50
2022/06/01 02:42:45;;;;;;;3.27;1.73;;;12.80;91.80;;;;;;5032537;28;20223;-50
2022/06/01 02:45:14;;;;;;;3.07;2.10;;;12.70;91.70;;;;;;5047152;28;20207;-50
2022/06/01 02:47:44;;;;;;;2.63;1.90;;;12.70;91.60;;;;;;5031483;28;20208;-50
2022/06/01 02:50:18;;;;;;;3.20;1.90;;;12.70;91.60;;;;;;5053885;28;20254;-50
2022/06/01 02:52:46;;;;;;;2.53;2.33;;;12.70;91.80;;;;;;5051328;28;20274;-50
2022/06/01 02:55:14;;;;;;;3.13;2.13;;;12.60;91.70;;;;;;5043707;28;20231;-50
2022/06/01 02:57:42;;;;;;;2.77;2.10;;;12.60;91.80;;;;;;5032551;28;20659;-50
2022/06/01 03:00:26;;;;;;;5.22;1.95;;;12.60;91.70;;;;;;5050664;28;20228;-50
2022/06/01 03:02:57;;;;;;;3.90;2.10;;;12.60;91.90;;;;;;5038786;28;20679;-50
2022/06/01 03:05:36;;;;;;;3.63;2.20;;;12.50;91.80;;;;;;5035841;28;20330;-50
2022/06/01 03:08:04;;;;;;;2.30;2.10;;;12.50;91.90;;;;;;5050705;28;20295;-50
2022/06/01 03:10:32;;;;;;;3.73;2.20;;;12.50;91.80;;;;;;5052611;28;20225;-50
2022/06/01 03:12:59;;;;;;;2.80;2.13;;;12.50;91.80;;;;;;5037215;28;20628;-50
2022/06/01 03:15:29;;;;;;;4.13;2.20;;;12.50;91.80;;;;;;5035655;28;20302;-50
2022/06/01 03:17:57;;;;;;;3.63;2.80;;;12.40;91.70;;;;;;5059259;28;20204;-50
2022/06/01 03:20:28;;;;;;;2.37;1.70;;;12.40;91.70;;;;;;5058962;28;20201;-51
2022/06/01 03:23:00;;;;;;;3.03;1.77;;;12.40;91.70;;;;;;5064439;28;20223;-51
2022/06/01 03:25:32;;;;;;;3.88;1.80;;;12.40;91.90;;;;;;5036224;28;20193;-51
2022/06/01 03:28:00;;;;;;;6.37;2.30;;;12.40;91.80;;;;;;5046683;28;20235;-51
2022/06/01 03:30:28;;;;;;;3.50;2.00;;;12.40;91.80;;;;;;5032383;28;20204;-49
2022/06/01 03:32:57;;;;;;;4.13;1.70;;;12.30;91.80;;;;;;5045276;28;20643;-50
2022/06/01 03:35:28;;;;;;;4.57;2.20;;;12.30;91.80;;;;;;5028974;28;20196;-48
2022/06/01 03:37:59;;;;;;;3.33;2.33;;;12.30;92.00;;;;;;5032783;28;20217;-51
2022/06/01 03:40:29;;;;;;;3.10;2.10;;;12.30;91.90;;;;;;5032775;28;20291;-49
2022/06/01 03:42:59;;;;;;;3.93;2.20;;;12.30;91.90;;;;;;5035711;28;20220;-50
2022/06/01 03:48:14;;;;;;;3.33;1.97;;;12.20;91.90;;;;;;5058374;28;20708;-49
2022/06/01 03:50:42;;;;;;;3.53;1.90;;;12.20;91.90;;;;;;5042691;28;20207;-50
2022/06/01 03:53:12;;;;;;;4.80;2.13;;;12.20;91.90;;;;;;5065246;28;20728;-50
2022/06/01 03:55:41;;;;;;;3.43;2.00;;;12.20;91.90;;;;;;5043031;28;20207;-50
2022/06/01 03:58:28;;;;;;;2.30;1.90;;;12.20;92.00;;;;;;5049407;28;20207;-50
2022/06/01 04:00:55;;;;;;;3.53;2.00;;;12.20;92.10;;;;;;5039331;28;20250;-51
2022/06/01 04:03:23;;;;;;;3.85;1.80;;;12.20;91.90;;;;;;5042846;28;20272;-51
2022/06/01 04:05:54;;;;;;;3.55;1.73;;;12.20;92.00;;;;;;5046193;28;20220;-50
2022/06/01 04:08:22;;;;;;;2.88;1.92;;;12.20;91.90;;;;;;5042879;28;20220;-50
2022/06/01 04:10:49;;;;;;;1.80;1.52;;;12.20;92.00;;;;;;5029446;28;20251;-50
2022/06/01 04:13:17;;;;;;;2.30;1.50;;;12.20;92.00;;;;;;5031607;28;20232;-50
2022/06/01 04:15:44;;;;;;;3.77;1.67;;;12.20;91.90;;;;;;5039076;28;20314;-50
2022/06/01 04:18:11;;;;;;;4.65;1.77;;;12.20;91.80;;;;;;5055586;28;20204;-36
2022/06/01 04:20:41;;;;;;;3.43;1.90;;;12.20;91.80;;;;;;5037744;28;20220;-36
2022/06/01 04:23:13;;;;;;;2.73;2.00;;;12.20;91.90;;;;;;5043079;28;20205;-36
2022/06/01 04:25:43;;;;;;;2.53;1.77;;;12.30;92.00;;;;;;5029111;28;20979;-36
2022/06/01 04:28:14;;;;;;;2.37;1.70;;;12.20;92.00;;;;;;5048391;28;20205;-36
2022/06/01 04:30:42;;;;;;;3.40;1.90;;;12.30;92.00;;;;;;5042149;28;20213;-36
2022/06/01 04:33:09;;;;;;;5.80;1.83;;;12.30;92.30;;;;;;5047095;28;20201;-36
2022/06/01 04:35:37;;;;;;;3.20;2.10;;;12.30;92.00;;;;;;5045443;28;20303;-36
2022/06/01 04:38:13;;;;;;;2.58;2.00;;;12.30;92.10;;;;;;5031713;28;20827;-36
2022/06/01 04:40:43;;;;;;;6.38;2.30;;;12.40;92.10;;;;;;5029408;28;20204;-36
2022/06/01 04:43:13;;;;;;;3.70;2.00;;;12.40;92.20;;;;;;5040037;28;20262;-37
2022/06/01 04:45:41;;;;;;;7.67;2.10;;;12.40;92.20;;;;;;5054943;28;20206;-36
2022/06/01 04:48:09;;;;;;;2.53;1.85;;;12.50;92.60;;;;;;5028626;28;20298;-36
2022/06/01 04:50:42;;;;;;;5.40;1.80;;;12.60;92.30;;;;;;5032615;28;20673;-36
2022/06/01 04:53:14;;;;;;;3.93;2.00;;;12.60;92.50;;;;;;5033774;28;20201;-36
2022/06/01 04:55:46;;;;;;;3.92;1.88;;;12.70;92.30;;;;;;5037691;28;20239;-36
2022/06/01 04:58:13;;;;;;;3.47;2.00;;;12.80;92.80;;;;;;5034520;28;20223;-36
2022/06/01 05:00:42;;;;;;;2.65;2.00;;;12.80;92.40;;;;;;5041679;28;20207;-36
2022/06/01 05:03:15;;;;;;;3.00;1.97;;;12.90;92.50;;;;;;5050334;28;20214;-36
2022/06/01 05:05:42;;;;;;;5.47;2.20;;;13.00;92.60;;;;;;5049837;28;20345;-36
2022/06/01 05:08:12;;;;;;;3.23;2.00;;;13.10;92.70;;;;;;5030627;28;20256;-36
2022/06/01 05:10:40;;;;;;;5.43;2.00;;;13.10;92.70;;;;;;5039615;28;20318;-37
2022/06/01 05:13:09;;;;;;;4.90;2.00;;;13.20;92.80;;;;;;5041156;28;20223;-37
2022/06/01 05:15:55;;;;;;;5.13;2.00;;;13.30;92.90;;;;;;5036630;28;20373;-37
2022/06/01 05:18:23;;;;;;;6.72;2.10;;;13.40;93.00;;;;;;5037782;28;20278;-37
2022/06/01 05:20:53;;;;;;;5.65;2.10;;;13.40;93.00;;;;;;5046615;28;20292;-37
2022/06/01 05:23:22;;;;;;;5.03;2.40;;;13.50;93.00;;;;;;5046613;28;20637;-37
2022/06/01 05:25:54;;;;;;;4.38;2.13;;;13.50;93.40;;;;;;5050062;28;20206;-37
2022/06/01 05:28:24;;;;;;;5.43;2.53;;;13.60;93.10;;;;;;5039249;28;20257;-37
2022/06/01 05:31:05;;;;;;;4.40;2.28;;;13.60;93.10;;;;;;5034786;28;20311;-37
2022/06/01 05:33:38;;;;;;;2.58;1.92;;;13.70;93.30;;;;;;5034542;28;20295;-37
2022/06/01 05:36:09;;;;;;;4.88;2.70;;;13.80;93.40;;;;;;5036662;28;20243;-50
2022/06/01 05:38:36;;;;;;;7.65;2.42;;;13.90;93.30;;;;;;5047842;28;20208;-51
2022/06/01 05:41:06;;;;;;;5.80;2.22;;;14.00;93.40;;;;;;5052787;28;20679;-51
2022/06/01 05:43:34;;;;;;;5.22;2.30;;;14.10;93.50;;;;;;5035305;28;20204;-51
2022/06/01 05:46:02;;;;;;;5.20;2.63;;;14.10;93.50;;;;;;5041760;28;20696;-49
2022/06/01 05:48:30;;;;;;;8.73;2.55;;;14.20;93.60;;;;;;5046316;28;20234;-51
2022/06/01 05:51:00;;;;;;;6.03;2.97;;;14.30;93.60;;;;;;5049084;28;20704;-51
2022/06/01 05:53:27;;;;;;;5.15;2.97;;;14.30;93.70;;;;;;5048413;28;20238;-51
2022/06/01 05:55:54;;;;;;;5.03;2.90;;;14.40;93.80;;;;;;5049752;28;20310;-51
2022/06/01 05:58:27;;;;;;;5.75;2.72;;;14.50;93.70;;;;;;5048552;28;20233;-51
2022/06/01 06:00:56;;;;;;;4.75;2.92;;;14.50;93.80;;;;;;5044775;28;20537;-51
2022/06/01 06:03:23;;;;;;;4.40;3.15;;;14.60;93.80;;;;;;5047813;28;20204;-51
2022/06/01 06:06:12;;;;;;;5.22;2.80;;;14.60;93.90;;;;;;5044699;28;20290;-50
2022/06/01 06:08:51;;;;;;;6.43;2.95;;;14.70;94.00;;;;;;5051102;28;20211;-51
2022/06/01 06:11:27;;;;;;;5.43;2.70;;;14.70;94.00;;;;;;5058815;28;20290;-50
2022/06/01 06:13:56;;;;;;;4.30;3.30;;;14.70;94.10;;;;;;5048570;28;20714;-51
2022/06/01 06:16:27;;;;;;;5.15;3.10;;;14.90;94.30;;;;;;5062115;28;20584;-51
2022/06/01 06:18:58;;;;;;;7.45;3.10;;;14.90;94.20;;;;;;5043806;28;20729;-51
2022/06/01 06:21:27;;;;;;;7.25;3.30;;;14.90;94.20;;;;;;5042054;28;20197;-51
2022/06/01 06:23:59;;;;;;;7.65;3.45;;;15.00;94.30;;;;;;5045955;28;20234;-50
2022/06/01 06:26:26;;;;;;;7.85;3.55;;;15.10;94.30;;;;;;5043236;28;20295;-51
2022/06/01 06:28:54;;;;;;;6.88;3.15;;;15.10;94.40;;;;;;5038228;28;20208;-50
2022/06/01 06:31:21;;;;;;;8.85;3.28;;;15.10;94.60;;;;;;5056239;28;20196;-50
2022/06/01 06:33:48;;;;;;;7.95;3.33;;;15.10;94.30;;;;;;5048175;28;20230;-51
2022/06/01 06:36:16;;;;;;;5.50;3.05;;;15.20;94.40;;;;;;5045543;28;20255;-50
2022/06/01 06:38:43;;;;;;;7.05;3.28;;;15.20;94.40;;;;;;5044421;28;20200;-48
2022/06/01 06:41:11;;;;;;;7.22;3.08;;;15.20;94.40;;;;;;5046855;28;20211;-49
2022/06/01 06:43:39;;;;;;;7.68;3.33;;;15.20;94.40;;;;;;5044107;28;20223;-50
2022/06/01 06:46:18;;;;;;;5.50;2.92;;;15.20;94.40;;;;;;5044752;28;20204;-49
2022/06/01 06:48:48;;;;;;;9.80;3.38;;;15.30;94.60;;;;;;5036136;28;20211;-48
2022/06/01 06:51:17;;;;;;;10.75;3.13;;;15.30;94.50;;;;;;5058483;28;20201;-49
2022/06/01 06:53:44;;;;;;;5.03;3.00;;;15.30;94.50;;;;;;5048191;28;20287;-49
2022/06/01 06:56:12;;;;;;;7.60;3.47;;;15.30;94.60;;;;;;5044124;28;20258;-49
2022/06/01 06:58:41;;;;;;;10.15;3.40;;;15.40;94.70;;;;;;5041822;28;20747;-49
2022/06/01 07:01:08;;;;;;;11.85;3.40;;;15.40;94.60;;;;;;5044818;28;20203;-50
2022/06/01 07:03:37;;;;;;;12.35;3.80;;;15.50;94.70;;;;;;5056946;28;20678;-48
2022/06/01 07:06:13;;;;;;;10.55;3.72;;;15.50;94.70;;;;;;5039252;28;20214;-49
2022/06/01 07:08:49;;;;;;;8.55;3.13;;;15.60;94.80;;;;;;5030331;28;20221;-49
2022/06/01 07:11:19;;;;;;;5.95;3.28;;;15.60;94.90;;;;;;5043444;28;20650;-49
2022/06/01 07:13:48;;;;;;;4.85;2.80;;;15.70;94.90;;;;;;5037201;28;20280;-35
2022/06/01 07:16:19;;;;;;;5.55;2.65;;;15.70;94.90;;;;;;5046019;28;20227;-35
2022/06/01 07:18:48;;;;;;;6.75;3.03;;;15.80;95.10;;;;;;5049349;28;20769;-36
2022/06/01 07:21:20;;;;;;;11.02;3.65;;;15.80;95.10;;;;;;5045303;28;20197;-36
2022/06/01 07:23:50;;;;;;;6.78;2.72;;;15.90;95.10;;;;;;5039419;28;20316;-36
2022/06/01 07:26:39;;;;;;;6.55;3.25;;;16.00;95.20;;;;;;5033844;28;20291;-36
2022/06/01 07:29:07;;;;;;;5.75;3.10;;;16.10;95.30;;;;;;5033911;28;20201;-35
2022/06/01 07:31:34;;;;;;;7.78;2.78;;;16.10;95.30;;;;;;5037055;28;20663;-36
2022/06/01 07:34:05;;;;;;;7.50;3.92;;;16.20;95.40;;;;;;5031116;28;20205;-35
2022/06/01 07:36:34;;;;;;;5.50;3.17;;;16.30;95.50;;;;;;5031238;28;20200;-37
2022/06/01 07:44:50;;;;;;;5.03;3.03;;;16.60;95.70;;;;;;5037780;28;20215;-36
2022/06/01 07:47:17;;;;;;;4.32;2.75;;;16.80;95.70;;;;;;5031775;28;20192;-36
2022/06/01 07:50:05;;;;;;;6.38;3.53;;;16.80;95.70;;;;;;5028168;28;20235;-37
2022/06/01 07:52:53;;;;;;;6.10;2.85;;;16.90;95.80;;;;;;5034261;28;20215;-36
2022/06/01 07:55:20;;;;;;;7.32;2.80;;;17.00;95.80;;;;;;5029768;28;20302;-36
2022/06/01 07:57:47;;;;;;;4.40;3.28;;;17.00;95.80;;;;;;5044923;28;20711;-37
2022/06/01 08:00:15;;;;;;;5.25;2.63;;;17.10;95.80;;;;;;5045594;28;20197;-37
2022/06/01 08:02:42;;;;;;;4.28;2.95;;;17.20;95.80;;;;;;5036319;28;20319;-37
2022/06/01 08:05:13;;;;;;;6.85;3.05;;;17.30;95.90;;;;;;5034038;28;20272;-37
2022/06/01 08:07:44;;;;;;;4.30;2.80;;;17.40;95.90;;;;;;5039234;28;20570;-37
2022/06/01 08:10:14;;;;;;;9.82;2.80;;;17.40;95.90;;;;;;5036795;28;20311;-37
2022/06/01 08:15:28;;;;;;;4.22;2.63;;;17.50;96.00;;;;;;5046805;28;20254;-37
2022/06/01 08:17:57;;;;;;;6.75;2.92;;;17.60;95.90;;;;;;5038396;28;20196;-36
2022/06/01 08:20:26;;;;;;;4.07;2.33;;;17.70;96.00;;;;;;5034868;28;20223;-37
2022/06/01 08:22:54;;;;;;;3.40;2.58;;;17.70;95.90;;;;;;5032235;28;20288;-36
2022/06/01 08:25:23;;;;;;;2.95;2.30;;;17.70;96.20;;;;;;5049265;28;20721;-36
2022/06/01 08:27:52;;;;;;;4.20;2.50;;;17.80;95.90;;;;;;5048035;28;20229;-37
2022/06/01 08:30:23;;;;;;;8.75;3.03;;;17.80;95.80;;;;;;5031031;28;20221;-37
2022/06/01 08:32:51;;;;;;;4.85;2.47;;;17.80;95.80;;;;;;5034097;28;20243;-36
2022/06/01 08:35:24;;;;;;;5.55;2.72;;;17.90;95.80;;;;;;5047571;28;20208;-36
2022/06/01 08:37:52;;;;;;;8.10;2.72;;;17.90;95.70;;;;;;5042677;28;20217;-36
2022/06/01 08:40:23;;;;;;;5.10;2.15;;;18.00;95.60;;;;;;5043068;28;20254;-36
2022/06/01 08:43:21;;;;;;;2.95;1.92;;;18.00;95.70;;;;;;5030596;28;20534;-37
2022/06/01 08:45:53;;;;;;;2.58;1.85;;;18.00;95.80;;;;;;5045016;28;20208;-38
2022/06/01 08:48:31;;;;;;;4.82;2.70;;;18.00;95.70;;;;;;5063464;28;20200;-37
2022/06/01 08:50:58;;;;;;;3.95;2.40;;;18.10;95.60;;;;;;5047391;28;20639;-37
2022/06/01 08:53:25;;;;;;;14.27;4.13;;;18.10;95.40;;;;;;5032110;28;20674;-37
2022/06/01 08:56:04;;;;;;;12.13;3.13;;;18.20;95.40;;;;;;5036397;28;20213;-37
2022/06/01 08:58:51;;;;;;;4.78;1.90;;;18.30;95.50;;;;;;5034163;28;20611;-37
2022/06/01 09:01:42;;;;;;;4.32;1.90;;;18.40;95.70;;;;;;5036661;28;20236;-51
2022/06/01 09:04:43;;;;;;;4.82;1.83;;;18.40;95.70;;;;;;5043045;28;20236;-50
2022/06/01 09:07:25;;;;;;;7.38;2.25;;;18.50;95.50;;;;;;5036042;28;20209;-51
2022/06/01 09:10:07;;;;;;;3.47;1.95;;;18.60;95.40;;;;;;5033985;28;20219;-50
2022/06/01 09:12:37;;;;;;;5.20;1.80;;;18.60;95.30;;;;;;5053402;28;20251;-51
2022/06/01 09:15:12;;;;;;;2.10;1.40;;;18.60;95.40;;;;;;5045307;28;20658;-51
2022/06/01 09:17:43;;;;;;;3.75;1.70;;;18.60;95.30;;;;;;5039693;28;20200;-50
2022/06/01 09:23:09;;;;;;;4.28;1.50;;;18.60;95.30;;;;;;5046571;28;20227;-49
2022/06/01 09:25:38;;;;;;;5.20;1.52;;;18.60;95.10;;;;;;5034313;28;20683;-49
2022/06/01 09:28:24;;;;;;;2.95;1.83;;;18.70;95.20;;;;;;5054540;28;20268;-49
2022/06/01 09:31:20;;;;;;;3.58;2.00;;;18.70;95.20;;;;;;5034875;28;20234;-49
2022/06/01 09:33:47;;;;;;;3.28;1.33;;;18.70;94.90;;;;;;5049935;28;20216;-49
2022/06/01 09:36:26;;;;;;;3.33;1.55;;;18.70;95.20;;;;;;5065802;28;20204;-50
2022/06/01 09:38:58;;;;;;;3.67;1.70;;;18.70;95.20;;;;;;5040031;28;20217;-50
2022/06/01 09:41:31;;;;;;;5.50;1.90;;;18.80;95.20;;;;;;5039995;28;20287;-50
2022/06/01 09:44:05;;;;;;;12.55;2.10;;;18.80;95.00;;;;;;5037967;28;20214;-50
2022/06/01 09:46:40;;;;;;;8.48;2.03;;;18.80;94.90;;;;;;5035395;28;20287;-49
2022/06/01 09:49:29;;;;;;;3.50;1.83;;;18.80;94.90;;;;;;5034035;28;20240;-50
2022/06/01 09:52:00;;;;;;;3.83;1.63;;;18.90;94.90;;;;;;5047281;28;20666;-50
2022/06/01 09:54:31;;;;;;;5.72;1.50;;;18.90;95.10;;;;;;5047834;28;20207;-49
2022/06/01 09:57:18;;;;;;;6.22;1.95;;;19.00;95.20;;;;;;5033706;28;20248;-50
2022/06/01 10:08:20;;;;;;;8.38;1.50;;;19.30;94.80;;;;;;5038262;28;20255;-50
2022/06/01 10:11:21;;;;;;;12.32;2.05;;;19.30;94.60;;;;;;5046483;28;20263;-50
2022/06/01 10:13:54;;;;;;;2.63;1.25;;;19.40;94.70;;;;;;5036832;28;20379;-50
2022/06/01 10:16:35;;;;;;;4.97;1.60;;;19.40;94.50;;;;;;5052737;28;20206;-50
2022/06/01 10:20:06;;;;;;;2.65;1.60;;;19.40;94.00;;;;;;5049774;28;20635;-50
2022/06/01 10:22:46;;;;;;;3.75;1.67;;;19.40;94.40;;;;;;5042326;28;20208;-50
2022/06/01 10:25:19;;;;;;;4.05;1.40;;;19.40;93.90;;;;;;5060664;28;20293;-51
2022/06/01 10:27:53;;;;;;;2.50;1.80;;;19.40;94.30;;;;;;5055196;28;20208;-51
2022/06/01 10:30:31;;;;;;;3.60;1.95;;;19.40;94.00;;;;;;5047552;28;20600;-50
2022/06/01 10:33:03;;;;;;;3.97;1.63;;;19.50;94.30;;;;;;5052777;28;20210;-50
2022/06/01 10:35:39;;;;;;;3.70;1.85;;;19.50;94.30;;;;;;5041425;28;20204;-50
2022/06/01 10:38:30;;;;;;;4.38;1.73;;;19.50;94.20;;;;;;5050711;28;20207;-50
2022/06/01 10:41:25;;;;;;;5.32;1.75;;;19.60;94.30;;;;;;5054952;28;20201;-50
2022/06/01 10:44:24;;;;;;;3.55;1.60;;;19.60;93.70;;;;;;5041646;28;20616;-50
2022/06/01 10:47:18;;;;;;;10.13;2.80;;;19.70;93.40;;;;;;5047151;28;20251;-50
2022/06/01 10:50:00;;;;;;;8.25;2.08;;;19.70;93.80;;;;;;5043040;28;20209;-50
2022/06/01 10:52:34;;;;;;;4.70;2.15;;;19.70;94.10;;;;;;5048059;28;20205;-50
2022/06/01 10:55:08;;;;;;;4.15;2.13;;;19.80;94.20;;;;;;5036413;28;20719;-50
2022/06/01 10:57:41;;;;;;;4.65;1.63;;;19.90;93.70;;;;;;5049002;28;20212;-51
2022/06/01 11:00:13;;;;;;;4.57;2.00;;;19.90;94.00;;;;;;5043836;28;20645;-50
2022/06/01 11:03:08;;;;;;;2.47;2.17;;;20.00;94.10;;;;;;5050204;28;20682;-51
2022/06/01 11:05:50;;;;;;;3.25;2.05;;;20.00;94.00;;;;;;5068370;28;20253;-51
2022/06/01 11:08:39;;;;;;;3.20;1.80;;;20.00;93.50;;;;;;5032407;28;20220;-50
2022/06/01 11:11:18;;;;;;;3.03;1.63;;;20.00;93.10;;;;;;5058609;28;20227;-51
2022/06/01 11:13:55;;;;;;;5.03;2.00;;;19.90;93.50;;;;;;5042903;28;20306;-50
2022/06/01 11:16:38;;;;;;;3.50;2.10;;;19.90;93.50;;;;;;5062312;28;20210;-51
2022/06/01 11:19:08;;;;;;;4.45;2.25;;;19.80;93.60;;;;;;5058217;28;20216;-50
2022/06/01 11:21:47;;;;;;;4.82;2.47;;;19.80;93.80;;;;;;5049492;28;20196;-50
2022/06/01 11:24:49;;;;;;;4.53;2.35;;;19.80;93.80;;;;;;5042374;28;20675;-51
2022/06/01 11:27:25;;;;;;;3.58;2.50;;;19.80;93.30;;;;;;5062317;28;20211;-50
2022/06/01 11:30:05;;;;;;;2.70;1.92;;;19.80;93.90;;;;;;5044190;28;20315;-50
2022/06/01 11:32:55;;;;;;;2.78;2.30;;;19.80;93.80;;;;;;5031826;28;20197;-51
2022/06/01 11:35:31;;;;;;;2.33;2.00;;;19.80;93.50;;;;;;5048598;28;20635;-50
2022/06/01 11:38:14;;;;;;;3.10;2.30;;;19.80;93.60;;;;;;5066548;28;20664;-52
2022/06/01 11:41:06;;;;;;;1.85;1.75;;;19.80;93.60;;;;;;5052955;28;20208;-51
2022/06/01 11:43:55;;;;;;;4.45;1.67;;;19.90;93.70;;;;;;5040483;28;20713;-51
2022/06/01 11:46:52;;;;;;;8.50;2.13;;;19.80;93.40;;;;;;5042608;28;20209;-51
2022/06/01 11:49:44;;;;;;;4.57;1.85;;;19.80;93.40;;;;;;5039181;28;20200;-51
2022/06/01 11:52:22;;;;;;;3.70;2.00;;;19.90;93.00;;;;;;5032003;28;20726;-51
2022/06/01 11:55:10;;;;;;;4.82;1.45;;;19.90;93.20;;;;;;5054391;28;20215;-51
2022/06/01 11:57:40;;;;;;;3.92;1.67;;;19.90;93.50;;;;;;5069690;28;20655;-51
2022/06/01 12:00:35;;;;;;;4.45;1.42;;;19.90;93.60;;;;;;5041429;28;20731;-51
2022/06/01 12:03:24;;;;;;;3.05;1.90;;;20.00;92.80;;;;;;5030298;28;20205;-51
2022/06/01 12:06:13;;;;;;;8.88;2.88;;;20.10;93.40;;;;;;5054672;28;20257;-51
2022/06/01 12:08:53;;;;;;;4.88;2.13;;;20.20;93.00;;;;;;5047268;28;20204;-51
2022/06/01 12:11:39;;;;;;;4.20;1.88;;;20.30;93.20;;;;;;5033237;28;20220;-51
2022/06/01 12:14:28;;;;;;;5.63;2.33;;;20.40;93.50;;;;;;5029801;28;20208;-51
2022/06/01 12:17:19;;;;;;;2.88;1.75;;;20.30;92.80;;;;;;5043404;28;21060;-51
2022/06/01 12:19:49;;;;;;;3.97;2.20;;;20.30;93.30;;;;;;5033606;28;20220;-50
2022/06/01 12:28:58;;;;;;;3.15;2.15;;;20.30;93.00;;;;;;5049260;28;20570;-51
2022/06/01 12:31:28;;;;;;;5.45;2.35;;;20.40;93.00;;;;;;5028451;28;21557;-51
2022/06/01 12:34:37;;;;;;;2.55;1.80;;;20.40;92.50;;;;;;5031221;28;20718;-51
2022/06/01 12:37:06;;;;;;;3.22;2.20;;;20.40;92.60;;;;;;5066725;28;20204;-50
2022/06/01 12:39:42;;;;;;;3.10;1.40;;;20.30;92.20;;;;;;5049892;28;20205;-51
2022/06/01 12:42:27;;;;;;;2.70;1.55;;;20.20;92.40;;;;;;5045961;28;20257;-51
2022/06/01 12:45:01;;;;;;;1.85;1.40;;;20.20;92.00;;;;;;5047264;28;20615;-51
2022/06/01 12:47:39;;;;;;;2.30;2.00;;;20.20;92.30;;;;;;5041046;28;20200;-51
2022/06/01 12:50:16;;;;;;;1.58;1.33;;;20.10;92.30;;;;;;5047383;28;20208;-50
2022/06/01 12:52:44;;;;;;;1.90;1.35;;;20.10;92.50;;;;;;5046988;28;20303;-51
2022/06/01 12:55:24;;;;;;;2.17;1.38;;;20.20;92.70;;;;;;5048481;28;20207;-51
2022/06/01 12:57:58;;;;;;;1.77;1.02;;;20.20;92.70;;;;;;5042692;28;20273;-51
2022/06/01 13:00:36;;;;;;;1.10;1.00;;;20.30;92.50;;;;;;5044892;28;20706;-51
2022/06/01 13:03:13;;;;;;;1.13;1.00;;;20.40;92.70;;;;;;5036009;28;20208;-51
2022/06/01 13:05:46;;;;;;;2.08;1.40;;;20.30;92.80;;;;;;5037211;28;20258;-51
2022/06/01 13:08:26;;;;;;;1.85;1.40;;;20.40;92.60;;;;;;5039060;28;20204;-51
2022/06/01 13:11:13;;;;;;;1.45;1.30;;;20.40;92.40;;;;;;5042471;28;20732;-51
2022/06/01 13:13:43;;;;;;;3.50;1.77;;;20.30;92.60;;;;;;5030293;28;20560;-50
2022/06/01 13:16:10;;;;;;;2.10;1.90;;;20.30;92.70;;;;;;5046012;28;20705;-50
2022/06/01 13:18:42;;;;;;;1.75;1.65;;;20.30;92.40;;;;;;5035372;28;20216;-51
2022/06/01 13:21:30;;;;;;;1.85;1.70;;;20.30;92.30;;;;;;5038089;28;20208;-51
2022/06/01 13:24:05;;;;;;;1.95;1.50;;;20.30;92.50;;;;;;5036669;28;20228;-51
2022/06/01 13:26:45;;;;;;;5.40;1.90;;;20.30;92.70;;;;;;5040747;28;20708;-50
2022/06/01 13:29:40;;;;;;;2.45;1.60;;;20.30;92.60;;;;;;5045925;28;20196;-46
2022/06/01 13:32:10;;;;;;;2.58;2.00;;;20.30;92.90;;;;;;5029176;28;20702;-46
2022/06/01 13:34:49;;;;;;;1.50;1.40;;;20.30;92.30;;;;;;5049327;28;20251;-45
2022/06/01 13:37:20;;;;;;;1.65;1.50;;;20.40;92.70;;;;;;5029790;28;20698;-35
2022/06/01 13:39:58;;;;;;;4.65;2.10;;;20.40;92.60;;;;;;5027035;28;20292;-35
2022/06/01 13:42:32;;;;;;;7.57;2.10;;;20.50;92.30;;;;;;5029676;28;20251;-35
2022/06/01 13:45:11;;;;;;;2.20;2.03;;;20.50;92.20;;;;;;5040827;28;20690;-35
2022/06/01 13:47:53;;;;;;;4.00;1.50;;;20.50;91.90;;;;;;5042347;28;20211;-35
2022/06/01 13:50:32;;;;;;;3.67;1.58;;;20.50;92.00;;;;;;5021448;28;20201;-35
2022/06/01 13:53:10;;;;;;;1.92;1.70;;;20.50;92.30;;;;;;5036426;28;20632;-35
2022/06/01 13:56:04;;;;;;;1.40;1.30;;;20.50;92.40;;;;;;5023237;28;20786;-35